Terminal Aerodrome Forecast
Issued by NWS

Home | Current Version | Previous Version | Text Only | Print | Product List | Glossary On
Versions: 1 2 3 4 5 6 7 8 9 10 11 12 13 14 15 16 17 18 19 20 21 22 23 24 25
000
FTUS46 KEKA 040111 AAA
TAFCEC
TAF AMD
KCEC 040111Z 0401/0424 26006KT P6SM FEW006 BKN015 OVC023
      TEMPO 0402/0405 BKN020
     FM040500 18004KT 6SM BR BKN006 OVC010
     FM040600 VRB03KT 4SM BR OVC003
     FM041200 VRB03KT 1SM BR OVC002
     FM041600 VRB03KT P6SM OVC007=

USA.gov is the U.S. government's official web portal to all federal, state and local government web resources and services.